sensor_id;sensor_type;location;lat;lon;timestamp;P1;durP1;ratioP1;P2;durP2;ratioP2
38937;SDS011;24727;51.974;20.868;2022-11-20T00:01:25;61.43;;;27.53;;
38937;SDS011;24727;51.974;20.868;2022-11-20T00:03:53;60.20;;;28.37;;
38937;SDS011;24727;51.974;20.868;2022-11-20T00:06:22;55.67;;;24.17;;
38937;SDS011;24727;51.974;20.868;2022-11-20T00:08:50;61.93;;;27.83;;
38937;SDS011;24727;51.974;20.868;2022-11-20T00:11:21;58.80;;;24.07;;
38937;SDS011;24727;51.974;20.868;2022-11-20T00:13:50;66.93;;;26.50;;
38937;SDS011;24727;51.974;20.868;2022-11-20T00:16:19;72.50;;;27.97;;
38937;SDS011;24727;51.974;20.868;2022-11-20T00:18:48;78.07;;;29.23;;
38937;SDS011;24727;51.974;20.868;2022-11-20T00:21:14;42.90;;;19.57;;
38937;SDS011;24727;51.974;20.868;2022-11-20T00:23:42;81.00;;;32.50;;
38937;SDS011;24727;51.974;20.868;2022-11-20T00:26:10;46.47;;;19.80;;
38937;SDS011;24727;51.974;20.868;2022-11-20T00:28:40;64.43;;;26.80;;
38937;SDS011;24727;51.974;20.868;2022-11-20T00:31:08;70.17;;;30.20;;
38937;SDS011;24727;51.974;20.868;2022-11-20T00:33:35;59.17;;;26.17;;
38937;SDS011;24727;51.974;20.868;2022-11-20T00:36:02;56.87;;;25.60;;
38937;SDS011;24727;51.974;20.868;2022-11-20T00:38:30;63.93;;;28.03;;
38937;SDS011;24727;51.974;20.868;2022-11-20T00:40:58;69.53;;;30.03;;
38937;SDS011;24727;51.974;20.868;2022-11-20T00:43:25;66.00;;;29.67;;
38937;SDS011;24727;51.974;20.868;2022-11-20T00:45:58;63.37;;;28.27;;
38937;SDS011;24727;51.974;20.868;2022-11-20T00:48:24;58.93;;;25.43;;
38937;SDS011;24727;51.974;20.868;2022-11-20T00:50:52;69.50;;;29.67;;
38937;SDS011;24727;51.974;20.868;2022-11-20T00:53:19;74.53;;;32.77;;
38937;SDS011;24727;51.974;20.868;2022-11-20T00:55:55;68.33;;;29.40;;
38937;SDS011;24727;51.974;20.868;2022-11-20T00:58:23;67.67;;;29.87;;
38937;SDS011;24727;51.974;20.868;2022-11-20T01:00:59;50.55;;;21.70;;
38937;SDS011;24727;51.974;20.868;2022-11-20T01:03:26;54.80;;;26.00;;
38937;SDS011;24727;51.974;20.868;2022-11-20T01:05:53;72.07;;;30.50;;
38937;SDS011;24727;51.974;20.868;2022-11-20T01:08:20;71.27;;;31.20;;
38937;SDS011;24727;51.974;20.868;2022-11-20T01:10:46;68.70;;;30.50;;
38937;SDS011;24727;51.974;20.868;2022-11-20T01:13:11;65.20;;;29.37;;
38937;SDS011;24727;51.974;20.868;2022-11-20T01:16:01;76.97;;;29.67;;
38937;SDS011;24727;51.974;20.868;2022-11-20T01:18:32;69.43;;;30.43;;
38937;SDS011;24727;51.974;20.868;2022-11-20T01:21:02;67.63;;;29.77;;
38937;SDS011;24727;51.974;20.868;2022-11-20T01:23:37;67.83;;;30.43;;
38937;SDS011;24727;51.974;20.868;2022-11-20T01:26:07;54.00;;;22.97;;
38937;SDS011;24727;51.974;20.868;2022-11-20T01:28:39;59.60;;;26.50;;
38937;SDS011;24727;51.974;20.868;2022-11-20T01:31:17;63.10;;;26.37;;
38937;SDS011;24727;51.974;20.868;2022-11-20T01:33:43;57.70;;;27.67;;
38937;SDS011;24727;51.974;20.868;2022-11-20T01:36:11;62.47;;;28.67;;
38937;SDS011;24727;51.974;20.868;2022-11-20T01:38:38;69.63;;;30.10;;
38937;SDS011;24727;51.974;20.868;2022-11-20T01:41:04;66.03;;;25.53;;
38937;SDS011;24727;51.974;20.868;2022-11-20T01:43:31;64.40;;;28.90;;
38937;SDS011;24727;51.974;20.868;2022-11-20T01:51:35;61.97;;;27.90;;
38937;SDS011;24727;51.974;20.868;2022-11-20T01:57:08;66.20;;;27.90;;
38937;SDS011;24727;51.974;20.868;2022-11-20T01:59:38;66.33;;;27.83;;
38937;SDS011;24727;51.974;20.868;2022-11-20T02:02:09;67.57;;;28.70;;
38937;SDS011;24727;51.974;20.868;2022-11-20T02:04:35;55.33;;;23.80;;
38937;SDS011;24727;51.974;20.868;2022-11-20T02:07:02;69.67;;;29.83;;
38937;SDS011;24727;51.974;20.868;2022-11-20T02:09:30;66.63;;;28.93;;
38937;SDS011;24727;51.974;20.868;2022-11-20T02:11:57;65.23;;;25.73;;
38937;SDS011;24727;51.974;20.868;2022-11-20T02:14:24;64.67;;;28.90;;
38937;SDS011;24727;51.974;20.868;2022-11-20T02:16:50;64.00;;;26.00;;
38937;SDS011;24727;51.974;20.868;2022-11-20T02:19:24;63.70;;;28.70;;
38937;SDS011;24727;51.974;20.868;2022-11-20T02:22:13;61.53;;;26.33;;
38937;SDS011;24727;51.974;20.868;2022-11-20T02:24:45;64.97;;;27.23;;
38937;SDS011;24727;51.974;20.868;2022-11-20T02:27:14;67.93;;;29.07;;
38937;SDS011;24727;51.974;20.868;2022-11-20T02:29:51;70.43;;;30.10;;
38937;SDS011;24727;51.974;20.868;2022-11-20T02:32:20;59.23;;;26.83;;
38937;SDS011;24727;51.974;20.868;2022-11-20T02:34:47;65.90;;;28.60;;
38937;SDS011;24727;51.974;20.868;2022-11-20T02:37:13;66.40;;;26.80;;
38937;SDS011;24727;51.974;20.868;2022-11-20T02:39:39;61.17;;;27.03;;
38937;SDS011;24727;51.974;20.868;2022-11-20T02:42:07;63.90;;;28.33;;
38937;SDS011;24727;51.974;20.868;2022-11-20T02:44:34;62.07;;;28.13;;
38937;SDS011;24727;51.974;20.868;2022-11-20T02:47:00;54.00;;;23.87;;
38937;SDS011;24727;51.974;20.868;2022-11-20T02:49:27;67.70;;;28.00;;
38937;SDS011;24727;51.974;20.868;2022-11-20T02:51:53;68.17;;;28.70;;
38937;SDS011;24727;51.974;20.868;2022-11-20T02:54:19;61.27;;;27.37;;
38937;SDS011;24727;51.974;20.868;2022-11-20T02:56:45;62.27;;;27.43;;
38937;SDS011;24727;51.974;20.868;2022-11-20T02:59:11;60.87;;;27.67;;
38937;SDS011;24727;51.974;20.868;2022-11-20T03:01:37;65.03;;;28.40;;
38937;SDS011;24727;51.974;20.868;2022-11-20T03:04:04;66.90;;;28.07;;
38937;SDS011;24727;51.974;20.868;2022-11-20T03:06:31;61.40;;;25.40;;
38937;SDS011;24727;51.974;20.868;2022-11-20T03:08:57;74.97;;;29.20;;
38937;SDS011;24727;51.974;20.868;2022-11-20T03:11:23;79.23;;;33.93;;
38937;SDS011;24727;51.974;20.868;2022-11-20T03:13:49;82.93;;;30.77;;
38937;SDS011;24727;51.974;20.868;2022-11-20T03:16:24;66.67;;;29.40;;
38937;SDS011;24727;51.974;20.868;2022-11-20T03:18:51;56.10;;;23.77;;
38937;SDS011;24727;51.974;20.868;2022-11-20T03:21:18;48.53;;;22.77;;
38937;SDS011;24727;51.974;20.868;2022-11-20T03:23:45;61.83;;;23.80;;
38937;SDS011;24727;51.974;20.868;2022-11-20T03:26:21;51.17;;;23.57;;
38937;SDS011;24727;51.974;20.868;2022-11-20T03:28:49;64.23;;;26.20;;
38937;SDS011;24727;51.974;20.868;2022-11-20T03:31:17;63.63;;;25.77;;
38937;SDS011;24727;51.974;20.868;2022-11-20T03:33:45;59.63;;;25.53;;
38937;SDS011;24727;51.974;20.868;2022-11-20T03:36:12;68.43;;;28.73;;
38937;SDS011;24727;51.974;20.868;2022-11-20T03:38:39;58.60;;;25.03;;
38937;SDS011;24727;51.974;20.868;2022-11-20T03:41:07;59.97;;;23.93;;
38937;SDS011;24727;51.974;20.868;2022-11-20T03:43:34;65.13;;;27.80;;
38937;SDS011;24727;51.974;20.868;2022-11-20T03:46:01;59.90;;;23.83;;
38937;SDS011;24727;51.974;20.868;2022-11-20T03:48:27;59.67;;;26.43;;
38937;SDS011;24727;51.974;20.868;2022-11-20T03:51:16;51.50;;;22.67;;
38937;SDS011;24727;51.974;20.868;2022-11-20T03:53:45;46.77;;;19.20;;
38937;SDS011;24727;51.974;20.868;2022-11-20T03:56:12;55.77;;;25.20;;
38937;SDS011;24727;51.974;20.868;2022-11-20T03:58:48;59.47;;;25.37;;
38937;SDS011;24727;51.974;20.868;2022-11-20T04:01:15;61.10;;;26.03;;
38937;SDS011;24727;51.974;20.868;2022-11-20T04:03:42;53.67;;;21.43;;
38937;SDS011;24727;51.974;20.868;2022-11-20T04:06:15;60.13;;;26.07;;
38937;SDS011;24727;51.974;20.868;2022-11-20T04:08:45;51.50;;;23.53;;
38937;SDS011;24727;51.974;20.868;2022-11-20T04:11:13;47.27;;;22.97;;
38937;SDS011;24727;51.974;20.868;2022-11-20T04:14:00;55.03;;;25.37;;
38937;SDS011;24727;51.974;20.868;2022-11-20T04:16:32;52.87;;;24.30;;
38937;SDS011;24727;51.974;20.868;2022-11-20T04:19:01;48.95;;;22.05;;
38937;SDS011;24727;51.974;20.868;2022-11-20T04:21:30;52.00;;;23.17;;
38937;SDS011;24727;51.974;20.868;2022-11-20T04:23:56;52.23;;;22.47;;
38937;SDS011;24727;51.974;20.868;2022-11-20T04:26:23;55.83;;;23.60;;
38937;SDS011;24727;51.974;20.868;2022-11-20T04:28:50;53.37;;;22.50;;
38937;SDS011;24727;51.974;20.868;2022-11-20T04:31:18;51.23;;;21.87;;
38937;SDS011;24727;51.974;20.868;2022-11-20T04:33:48;46.83;;;19.48;;
38937;SDS011;24727;51.974;20.868;2022-11-20T04:36:32;52.83;;;22.87;;
38937;SDS011;24727;51.974;20.868;2022-11-20T04:39:01;50.90;;;22.83;;
38937;SDS011;24727;51.974;20.868;2022-11-20T04:41:33;52.63;;;21.13;;
38937;SDS011;24727;51.974;20.868;2022-11-20T04:44:01;57.28;;;22.95;;
38937;SDS011;24727;51.974;20.868;2022-11-20T04:46:29;53.87;;;22.40;;
38937;SDS011;24727;51.974;20.868;2022-11-20T04:49:02;54.60;;;23.37;;
38937;SDS011;24727;51.974;20.868;2022-11-20T04:51:29;54.13;;;23.33;;
38937;SDS011;24727;51.974;20.868;2022-11-20T04:53:57;59.20;;;23.33;;
38937;SDS011;24727;51.974;20.868;2022-11-20T04:56:23;61.27;;;24.63;;
38937;SDS011;24727;51.974;20.868;2022-11-20T04:58:50;56.67;;;24.97;;
38937;SDS011;24727;51.974;20.868;2022-11-20T05:01:20;59.70;;;23.03;;
38937;SDS011;24727;51.974;20.868;2022-11-20T05:03:48;54.15;;;23.83;;
38937;SDS011;24727;51.974;20.868;2022-11-20T05:06:15;57.17;;;21.97;;
38937;SDS011;24727;51.974;20.868;2022-11-20T05:08:44;54.13;;;23.60;;
38937;SDS011;24727;51.974;20.868;2022-11-20T05:11:11;57.27;;;24.90;;
38937;SDS011;24727;51.974;20.868;2022-11-20T05:13:39;60.47;;;24.90;;
38937;SDS011;24727;51.974;20.868;2022-11-20T05:16:10;61.53;;;24.53;;
38937;SDS011;24727;51.974;20.868;2022-11-20T05:18:41;64.57;;;25.07;;
38937;SDS011;24727;51.974;20.868;2022-11-20T05:21:08;64.13;;;25.63;;
38937;SDS011;24727;51.974;20.868;2022-11-20T05:23:36;56.33;;;25.37;;
38937;SDS011;24727;51.974;20.868;2022-11-20T05:26:03;57.23;;;23.20;;
38937;SDS011;24727;51.974;20.868;2022-11-20T05:28:30;57.47;;;24.77;;
38937;SDS011;24727;51.974;20.868;2022-11-20T05:31:03;59.47;;;24.60;;
38937;SDS011;24727;51.974;20.868;2022-11-20T05:33:32;50.67;;;21.87;;
38937;SDS011;24727;51.974;20.868;2022-11-20T05:35:59;57.57;;;25.23;;
38937;SDS011;24727;51.974;20.868;2022-11-20T05:38:25;49.97;;;19.97;;
38937;SDS011;24727;51.974;20.868;2022-11-20T05:40:51;50.43;;;23.27;;
38937;SDS011;24727;51.974;20.868;2022-11-20T05:43:17;58.20;;;25.00;;
38937;SDS011;24727;51.974;20.868;2022-11-20T05:45:51;53.80;;;22.63;;
38937;SDS011;24727;51.974;20.868;2022-11-20T05:48:19;55.63;;;24.30;;
38937;SDS011;24727;51.974;20.868;2022-11-20T05:50:48;62.10;;;24.90;;
38937;SDS011;24727;51.974;20.868;2022-11-20T05:53:14;65.33;;;26.43;;
38937;SDS011;24727;51.974;20.868;2022-11-20T05:55:46;50.40;;;19.67;;
38937;SDS011;24727;51.974;20.868;2022-11-20T06:00:39;57.43;;;22.10;;
38937;SDS011;24727;51.974;20.868;2022-11-20T06:03:05;56.67;;;25.70;;
38937;SDS011;24727;51.974;20.868;2022-11-20T06:05:31;52.50;;;23.00;;
38937;SDS011;24727;51.974;20.868;2022-11-20T06:08:00;50.67;;;20.73;;
38937;SDS011;24727;51.974;20.868;2022-11-20T06:10:26;61.77;;;25.23;;
38937;SDS011;24727;51.974;20.868;2022-11-20T06:12:56;53.03;;;21.87;;
38937;SDS011;24727;51.974;20.868;2022-11-20T06:15:25;49.93;;;21.40;;
38937;SDS011;24727;51.974;20.868;2022-11-20T06:17:54;53.80;;;23.20;;
38937;SDS011;24727;51.974;20.868;2022-11-20T06:20:21;54.57;;;23.33;;
38937;SDS011;24727;51.974;20.868;2022-11-20T06:22:47;50.03;;;21.43;;
38937;SDS011;24727;51.974;20.868;2022-11-20T06:25:13;53.40;;;23.07;;
38937;SDS011;24727;51.974;20.868;2022-11-20T06:27:39;52.30;;;22.67;;
38937;SDS011;24727;51.974;20.868;2022-11-20T06:30:08;56.50;;;23.40;;
38937;SDS011;24727;51.974;20.868;2022-11-20T06:32:35;46.50;;;20.87;;
38937;SDS011;24727;51.974;20.868;2022-11-20T06:35:01;42.77;;;18.67;;
38937;SDS011;24727;51.974;20.868;2022-11-20T06:37:27;56.53;;;23.10;;
38937;SDS011;24727;51.974;20.868;2022-11-20T06:39:53;53.63;;;22.87;;
38937;SDS011;24727;51.974;20.868;2022-11-20T06:42:25;52.17;;;22.00;;
38937;SDS011;24727;51.974;20.868;2022-11-20T06:44:51;62.13;;;24.50;;
38937;SDS011;24727;51.974;20.868;2022-11-20T06:47:17;55.07;;;22.50;;
38937;SDS011;24727;51.974;20.868;2022-11-20T06:49:43;50.17;;;21.20;;
38937;SDS011;24727;51.974;20.868;2022-11-20T06:52:09;52.17;;;23.03;;
38937;SDS011;24727;51.974;20.868;2022-11-20T06:54:36;52.23;;;22.47;;
38937;SDS011;24727;51.974;20.868;2022-11-20T06:57:02;53.00;;;22.87;;
38937;SDS011;24727;51.974;20.868;2022-11-20T06:59:29;55.80;;;24.13;;
38937;SDS011;24727;51.974;20.868;2022-11-20T07:01:55;51.60;;;23.23;;
38937;SDS011;24727;51.974;20.868;2022-11-20T07:04:21;51.17;;;21.43;;
38937;SDS011;24727;51.974;20.868;2022-11-20T07:06:47;52.97;;;22.50;;
38937;SDS011;24727;51.974;20.868;2022-11-20T07:09:14;56.97;;;24.57;;
38937;SDS011;24727;51.974;20.868;2022-11-20T07:11:40;54.27;;;23.47;;
38937;SDS011;24727;51.974;20.868;2022-11-20T07:14:07;56.23;;;23.57;;
38937;SDS011;24727;51.974;20.868;2022-11-20T07:16:35;59.77;;;24.60;;
38937;SDS011;24727;51.974;20.868;2022-11-20T07:19:01;50.93;;;23.57;;
38937;SDS011;24727;51.974;20.868;2022-11-20T07:21:28;55.53;;;24.77;;
38937;SDS011;24727;51.974;20.868;2022-11-20T07:23:54;56.10;;;24.33;;
38937;SDS011;24727;51.974;20.868;2022-11-20T07:26:21;62.57;;;29.27;;
38937;SDS011;24727;51.974;20.868;2022-11-20T07:28:48;60.83;;;26.53;;
38937;SDS011;24727;51.974;20.868;2022-11-20T07:31:15;48.10;;;20.13;;
38937;SDS011;24727;51.974;20.868;2022-11-20T07:33:40;63.40;;;25.50;;
38937;SDS011;24727;51.974;20.868;2022-11-20T07:36:07;58.80;;;24.93;;
38937;SDS011;24727;51.974;20.868;2022-11-20T07:38:33;62.67;;;26.47;;
38937;SDS011;24727;51.974;20.868;2022-11-20T07:41:00;56.00;;;24.83;;
38937;SDS011;24727;51.974;20.868;2022-11-20T07:43:26;57.40;;;25.13;;
38937;SDS011;24727;51.974;20.868;2022-11-20T07:45:56;59.33;;;23.47;;
38937;SDS011;24727;51.974;20.868;2022-11-20T07:48:23;56.83;;;25.13;;
38937;SDS011;24727;51.974;20.868;2022-11-20T07:50:53;59.90;;;25.80;;
38937;SDS011;24727;51.974;20.868;2022-11-20T07:53:20;59.43;;;24.50;;
38937;SDS011;24727;51.974;20.868;2022-11-20T07:55:47;67.50;;;27.27;;
38937;SDS011;24727;51.974;20.868;2022-11-20T07:58:14;52.37;;;23.90;;
38937;SDS011;24727;51.974;20.868;2022-11-20T08:00:46;60.90;;;23.30;;
38937;SDS011;24727;51.974;20.868;2022-11-20T08:03:13;60.97;;;24.40;;
38937;SDS011;24727;51.974;20.868;2022-11-20T08:05:39;64.03;;;26.70;;
38937;SDS011;24727;51.974;20.868;2022-11-20T08:08:06;55.00;;;27.07;;
38937;SDS011;24727;51.974;20.868;2022-11-20T08:10:33;56.27;;;23.70;;
38937;SDS011;24727;51.974;20.868;2022-11-20T08:13:00;65.93;;;27.40;;
38937;SDS011;24727;51.974;20.868;2022-11-20T08:15:49;67.13;;;27.80;;
38937;SDS011;24727;51.974;20.868;2022-11-20T08:18:16;57.83;;;25.55;;
38937;SDS011;24727;51.974;20.868;2022-11-20T08:20:43;64.47;;;28.67;;
38937;SDS011;24727;51.974;20.868;2022-11-20T08:23:11;65.30;;;29.23;;
38937;SDS011;24727;51.974;20.868;2022-11-20T08:25:37;59.57;;;27.83;;
38937;SDS011;24727;51.974;20.868;2022-11-20T08:28:04;62.93;;;27.63;;
38937;SDS011;24727;51.974;20.868;2022-11-20T08:30:34;73.83;;;29.87;;
38937;SDS011;24727;51.974;20.868;2022-11-20T08:33:01;54.83;;;24.53;;
38937;SDS011;24727;51.974;20.868;2022-11-20T08:35:36;60.77;;;27.70;;
38937;SDS011;24727;51.974;20.868;2022-11-20T08:38:03;54.78;;;24.23;;
38937;SDS011;24727;51.974;20.868;2022-11-20T08:40:32;58.57;;;26.73;;
38937;SDS011;24727;51.974;20.868;2022-11-20T08:42:58;59.37;;;26.20;;
38937;SDS011;24727;51.974;20.868;2022-11-20T08:45:25;52.97;;;23.07;;
38937;SDS011;24727;51.974;20.868;2022-11-20T08:47:51;55.80;;;25.83;;
38937;SDS011;24727;51.974;20.868;2022-11-20T08:50:17;61.97;;;28.73;;
38937;SDS011;24727;51.974;20.868;2022-11-20T08:52:44;67.50;;;28.33;;
38937;SDS011;24727;51.974;20.868;2022-11-20T08:55:10;55.73;;;26.47;;
38937;SDS011;24727;51.974;20.868;2022-11-20T08:57:37;65.33;;;27.50;;
38937;SDS011;24727;51.974;20.868;2022-11-20T09:00:05;61.43;;;26.40;;
38937;SDS011;24727;51.974;20.868;2022-11-20T09:02:32;62.73;;;26.47;;
38937;SDS011;24727;51.974;20.868;2022-11-20T09:04:59;57.70;;;27.00;;
38937;SDS011;24727;51.974;20.868;2022-11-20T09:07:28;48.30;;;23.00;;
38937;SDS011;24727;51.974;20.868;2022-11-20T09:09:56;60.23;;;28.23;;
38937;SDS011;24727;51.974;20.868;2022-11-20T09:12:24;57.33;;;24.13;;
38937;SDS011;24727;51.974;20.868;2022-11-20T09:14:50;60.63;;;29.13;;
38937;SDS011;24727;51.974;20.868;2022-11-20T09:17:17;66.97;;;28.70;;
38937;SDS011;24727;51.974;20.868;2022-11-20T09:19:43;61.43;;;25.17;;
38937;SDS011;24727;51.974;20.868;2022-11-20T09:22:09;63.70;;;29.37;;
38937;SDS011;24727;51.974;20.868;2022-11-20T09:24:35;60.53;;;28.10;;
38937;SDS011;24727;51.974;20.868;2022-11-20T09:27:02;56.00;;;26.87;;
38937;SDS011;24727;51.974;20.868;2022-11-20T09:29:29;52.83;;;27.87;;
38937;SDS011;24727;51.974;20.868;2022-11-20T09:31:55;57.23;;;26.77;;
38937;SDS011;24727;51.974;20.868;2022-11-20T09:34:21;53.57;;;25.73;;
38937;SDS011;24727;51.974;20.868;2022-11-20T09:36:49;55.53;;;24.93;;
38937;SDS011;24727;51.974;20.868;2022-11-20T09:39:14;54.13;;;27.20;;
38937;SDS011;24727;51.974;20.868;2022-11-20T09:47:19;57.57;;;25.20;;
38937;SDS011;24727;51.974;20.868;2022-11-20T09:55:16;47.60;;;23.65;;
38937;SDS011;24727;51.974;20.868;2022-11-20T09:57:43;58.03;;;27.33;;
38937;SDS011;24727;51.974;20.868;2022-11-20T10:00:12;70.87;;;32.60;;
38937;SDS011;24727;51.974;20.868;2022-11-20T10:02:42;65.10;;;30.52;;
38937;SDS011;24727;51.974;20.868;2022-11-20T10:05:20;59.13;;;30.00;;
38937;SDS011;24727;51.974;20.868;2022-11-20T10:08:01;58.77;;;28.87;;
38937;SDS011;24727;51.974;20.868;2022-11-20T10:19:11;54.60;;;25.60;;
38937;SDS011;24727;51.974;20.868;2022-11-20T10:24:56;61.78;;;27.83;;
38937;SDS011;24727;51.974;20.868;2022-11-20T10:27:40;54.72;;;26.00;;
38937;SDS011;24727;51.974;20.868;2022-11-20T10:30:15;50.50;;;22.38;;
38937;SDS011;24727;51.974;20.868;2022-11-20T10:32:47;49.47;;;24.73;;
38937;SDS011;24727;51.974;20.868;2022-11-20T10:38:02;45.70;;;24.65;;
38937;SDS011;24727;51.974;20.868;2022-11-20T10:48:19;46.35;;;23.55;;
38937;SDS011;24727;51.974;20.868;2022-11-20T10:51:03;50.88;;;22.55;;
38937;SDS011;24727;51.974;20.868;2022-11-20T10:56:24;46.47;;;21.30;;
38937;SDS011;24727;51.974;20.868;2022-11-20T11:04:07;48.45;;;22.33;;
38937;SDS011;24727;51.974;20.868;2022-11-20T11:06:54;47.15;;;22.30;;
38937;SDS011;24727;51.974;20.868;2022-11-20T11:09:33;45.20;;;23.60;;
38937;SDS011;24727;51.974;20.868;2022-11-20T11:12:07;43.45;;;20.23;;
38937;SDS011;24727;51.974;20.868;2022-11-20T11:14:42;42.33;;;21.10;;
38937;SDS011;24727;51.974;20.868;2022-11-20T11:17:29;44.83;;;22.52;;
38937;SDS011;24727;51.974;20.868;2022-11-20T11:20:01;39.67;;;18.90;;
38937;SDS011;24727;51.974;20.868;2022-11-20T11:22:44;44.75;;;21.05;;
38937;SDS011;24727;51.974;20.868;2022-11-20T11:28:01;42.50;;;21.02;;
38937;SDS011;24727;51.974;20.868;2022-11-20T11:30:39;43.28;;;20.90;;
38937;SDS011;24727;51.974;20.868;2022-11-20T11:33:20;41.45;;;20.08;;
38937;SDS011;24727;51.974;20.868;2022-11-20T11:35:49;39.72;;;19.33;;
38937;SDS011;24727;51.974;20.868;2022-11-20T11:41:04;41.25;;;20.77;;
38937;SDS011;24727;51.974;20.868;2022-11-20T11:43:35;44.70;;;21.58;;
38937;SDS011;24727;51.974;20.868;2022-11-20T11:46:33;40.88;;;19.63;;
38937;SDS011;24727;51.974;20.868;2022-11-20T11:55:12;41.35;;;21.20;;
38937;SDS011;24727;51.974;20.868;2022-11-20T12:00:13;34.50;;;18.13;;
38937;SDS011;24727;51.974;20.868;2022-11-20T12:13:21;41.92;;;19.75;;
38937;SDS011;24727;51.974;20.868;2022-11-20T12:15:55;42.53;;;20.95;;
38937;SDS011;24727;51.974;20.868;2022-11-20T12:18:21;38.80;;;19.35;;
38937;SDS011;24727;51.974;20.868;2022-11-20T12:32:26;38.35;;;18.80;;
38937;SDS011;24727;51.974;20.868;2022-11-20T12:43:38;35.13;;;16.92;;
38937;SDS011;24727;51.974;20.868;2022-11-20T12:46:47;37.67;;;18.88;;
38937;SDS011;24727;51.974;20.868;2022-11-20T13:00:11;35.47;;;17.52;;
38937;SDS011;24727;51.974;20.868;2022-11-20T13:07:58;36.45;;;18.63;;
38937;SDS011;24727;51.974;20.868;2022-11-20T13:13:00;40.20;;;19.65;;
38937;SDS011;24727;51.974;20.868;2022-11-20T13:18:15;43.40;;;18.60;;
38937;SDS011;24727;51.974;20.868;2022-11-20T13:20:43;38.00;;;17.95;;
38937;SDS011;24727;51.974;20.868;2022-11-20T13:23:10;35.95;;;17.02;;
38937;SDS011;24727;51.974;20.868;2022-11-20T13:25:38;37.00;;;18.48;;
38937;SDS011;24727;51.974;20.868;2022-11-20T13:36:21;35.17;;;17.58;;
38937;SDS011;24727;51.974;20.868;2022-11-20T13:38:50;36.53;;;17.95;;
38937;SDS011;24727;51.974;20.868;2022-11-20T13:41:25;32.22;;;16.25;;
38937;SDS011;24727;51.974;20.868;2022-11-20T13:46:37;33.35;;;17.27;;
38937;SDS011;24727;51.974;20.868;2022-11-20T13:49:34;35.80;;;18.13;;
38937;SDS011;24727;51.974;20.868;2022-11-20T13:55:04;36.55;;;18.73;;
38937;SDS011;24727;51.974;20.868;2022-11-20T14:00:27;31.98;;;16.45;;
38937;SDS011;24727;51.974;20.868;2022-11-20T14:05:25;34.28;;;17.85;;
38937;SDS011;24727;51.974;20.868;2022-11-20T14:07:53;35.65;;;17.95;;
38937;SDS011;24727;51.974;20.868;2022-11-20T14:10:22;39.90;;;18.67;;
38937;SDS011;24727;51.974;20.868;2022-11-20T14:12:52;39.72;;;20.33;;
38937;SDS011;24727;51.974;20.868;2022-11-20T14:15:31;34.00;;;17.20;;
38937;SDS011;24727;51.974;20.868;2022-11-20T14:18:12;39.15;;;18.92;;
38937;SDS011;24727;51.974;20.868;2022-11-20T14:20:40;38.17;;;20.43;;
38937;SDS011;24727;51.974;20.868;2022-11-20T14:23:09;39.30;;;18.65;;
38937;SDS011;24727;51.974;20.868;2022-11-20T14:25:37;37.38;;;18.63;;
38937;SDS011;24727;51.974;20.868;2022-11-20T14:28:11;33.17;;;17.05;;
38937;SDS011;24727;51.974;20.868;2022-11-20T14:30:53;39.92;;;19.13;;
38937;SDS011;24727;51.974;20.868;2022-11-20T14:33:21;45.30;;;23.52;;
38937;SDS011;24727;51.974;20.868;2022-11-20T14:35:51;51.97;;;27.63;;
38937;SDS011;24727;51.974;20.868;2022-11-20T14:38:21;46.05;;;23.67;;
38937;SDS011;24727;51.974;20.868;2022-11-20T14:40:50;46.80;;;24.08;;
38937;SDS011;24727;51.974;20.868;2022-11-20T14:43:21;50.53;;;25.50;;
38937;SDS011;24727;51.974;20.868;2022-11-20T14:45:54;53.22;;;23.60;;
38937;SDS011;24727;51.974;20.868;2022-11-20T14:48:29;45.28;;;22.45;;
38937;SDS011;24727;51.974;20.868;2022-11-20T14:51:02;49.88;;;25.00;;
38937;SDS011;24727;51.974;20.868;2022-11-20T14:53:28;44.08;;;21.63;;
38937;SDS011;24727;51.974;20.868;2022-11-20T14:55:56;46.38;;;22.35;;
38937;SDS011;24727;51.974;20.868;2022-11-20T14:58:24;42.45;;;21.15;;
38937;SDS011;24727;51.974;20.868;2022-11-20T15:00:59;43.10;;;22.65;;
38937;SDS011;24727;51.974;20.868;2022-11-20T15:03:45;44.88;;;22.45;;
38937;SDS011;24727;51.974;20.868;2022-11-20T15:06:12;44.78;;;21.42;;
38937;SDS011;24727;51.974;20.868;2022-11-20T15:08:39;45.28;;;22.30;;
38937;SDS011;24727;51.974;20.868;2022-11-20T15:11:21;42.58;;;20.45;;
38937;SDS011;24727;51.974;20.868;2022-11-20T15:13:57;44.38;;;23.08;;
38937;SDS011;24727;51.974;20.868;2022-11-20T15:16:27;50.60;;;22.23;;
38937;SDS011;24727;51.974;20.868;2022-11-20T15:18:53;49.10;;;21.90;;
38937;SDS011;24727;51.974;20.868;2022-11-20T15:21:20;42.83;;;22.48;;
38937;SDS011;24727;51.974;20.868;2022-11-20T15:23:47;45.58;;;22.15;;
38937;SDS011;24727;51.974;20.868;2022-11-20T15:26:15;45.30;;;21.50;;
38937;SDS011;24727;51.974;20.868;2022-11-20T15:31:22;48.90;;;23.15;;
38937;SDS011;24727;51.974;20.868;2022-11-20T15:33:50;49.90;;;24.38;;
38937;SDS011;24727;51.974;20.868;2022-11-20T15:36:16;42.90;;;20.73;;
38937;SDS011;24727;51.974;20.868;2022-11-20T15:38:41;47.92;;;22.40;;
38937;SDS011;24727;51.974;20.868;2022-11-20T15:41:08;38.42;;;18.40;;
38937;SDS011;24727;51.974;20.868;2022-11-20T15:43:34;38.55;;;20.25;;
38937;SDS011;24727;51.974;20.868;2022-11-20T15:46:00;44.45;;;21.65;;
38937;SDS011;24727;51.974;20.868;2022-11-20T15:48:31;43.55;;;21.90;;
38937;SDS011;24727;51.974;20.868;2022-11-20T15:53:35;43.50;;;22.33;;
38937;SDS011;24727;51.974;20.868;2022-11-20T15:56:03;44.33;;;23.23;;
38937;SDS011;24727;51.974;20.868;2022-11-20T15:58:30;49.28;;;23.40;;
38937;SDS011;24727;51.974;20.868;2022-11-20T16:00:57;43.28;;;22.95;;
38937;SDS011;24727;51.974;20.868;2022-11-20T16:03:23;42.20;;;19.90;;
38937;SDS011;24727;51.974;20.868;2022-11-20T16:05:49;41.95;;;20.23;;
38937;SDS011;24727;51.974;20.868;2022-11-20T16:08:16;43.88;;;21.83;;
38937;SDS011;24727;51.974;20.868;2022-11-20T16:10:42;40.10;;;20.10;;
38937;SDS011;24727;51.974;20.868;2022-11-20T16:13:16;38.55;;;18.70;;
38937;SDS011;24727;51.974;20.868;2022-11-20T16:16:06;45.97;;;22.02;;
38937;SDS011;24727;51.974;20.868;2022-11-20T16:18:38;45.75;;;22.42;;
38937;SDS011;24727;51.974;20.868;2022-11-20T16:21:04;48.10;;;22.00;;
38937;SDS011;24727;51.974;20.868;2022-11-20T16:23:32;46.00;;;22.75;;
38937;SDS011;24727;51.974;20.868;2022-11-20T16:25:59;50.90;;;21.15;;
38937;SDS011;24727;51.974;20.868;2022-11-20T16:28:34;63.67;;;25.73;;
38937;SDS011;24727;51.974;20.868;2022-11-20T16:31:21;62.22;;;25.38;;
38937;SDS011;24727;51.974;20.868;2022-11-20T16:33:50;37.80;;;18.48;;
38937;SDS011;24727;51.974;20.868;2022-11-20T16:36:19;46.03;;;20.35;;
38937;SDS011;24727;51.974;20.868;2022-11-20T16:38:46;47.53;;;21.88;;
38937;SDS011;24727;51.974;20.868;2022-11-20T16:41:18;44.10;;;21.45;;
38937;SDS011;24727;51.974;20.868;2022-11-20T16:43:45;50.33;;;23.70;;
38937;SDS011;24727;51.974;20.868;2022-11-20T16:46:13;45.65;;;21.85;;